首页
METAR-TAF:

METAR-TAF

机场 :

赫尔辛基, 芬兰

赫尔辛基-万塔机场

纬度: 60-19N, 经度: 024-58E, 海拔: 51米

当前天气观测

该预报发布于24分钟前的01:20 UTC
风速3节,风向北转东北
温度 -7°C
湿度 93%
气压 999 hPa
能见度10公里或以上
少量云层高于1500英尺
多云层高于2300英尺

METAR: EFHK 190120Z 03003KT 9999 FEW015 BKN023 M07/M08 Q0999 NOSIG

时间: 03:44 (01:44 UTC)

预报

该预报发布于2小时和16分钟前的23:28 UTC
预报有效从19日的 00点(UTC)到 19日的 24点(UTC)
风速4节,风向东北
能見度: 8000
散云层高于1200英尺
多云层高于2000英尺
小雪
短暂存在
从 19日的 00点(UTC)到 19日的 06点(UTC)
能見度: 2500
多云层高于900英尺
短暂存在
从 19日的 06点(UTC)到 19日的 12点(UTC)
能見度: 3500
多云层高于700英尺
短暂存在
从 19日的 12点(UTC)到 19日的 24点(UTC)
多云层高于700英尺

TAF: EFHK 182328Z 1900/1924 05004KT 8000 -SN SCT012 BKN020 TEMPO 1900/1906 2500 BKN009 TEMPO 1906/1912 3500 BKN007 TEMPO 1912/1924 BKN007

超过4000个机场的气象观测和天气预报(METAR&TAF报告)。

可查询的气象台以黄色和红色小点在地图上表示。

将鼠标移到小点上方,可查看气象台名称。

然后点击查看天气观测和预报。

如需切换地图:点击带黑十字的绿色按钮放大地图;点击带横线的绿色按钮缩小地图;或者点击绿色箭头查看邻近地区的地图。


METAR-TAF: